sensor_id;sensor_type;location;lat;lon;timestamp;temperature;humidity
70336;SHT31;57756;47.408;18.940;2024-01-25T00:00:06;6.76;88.42
70336;SHT31;57756;47.408;18.940;2024-01-25T00:02:32;6.74;88.25
70336;SHT31;57756;47.408;18.940;2024-01-25T00:04:57;6.87;87.75
70336;SHT31;57756;47.408;18.940;2024-01-25T00:07:22;6.98;87.28
70336;SHT31;57756;47.408;18.940;2024-01-25T00:09:48;6.83;87.90
70336;SHT31;57756;47.408;18.940;2024-01-25T00:12:13;6.92;87.09
70336;SHT31;57756;47.408;18.940;2024-01-25T00:14:39;6.97;86.74
70336;SHT31;57756;47.408;18.940;2024-01-25T00:17:04;6.88;87.16
70336;SHT31;57756;47.408;18.940;2024-01-25T00:19:30;7.15;86.27
70336;SHT31;57756;47.408;18.940;2024-01-25T00:21:55;7.19;86.14
70336;SHT31;57756;47.408;18.940;2024-01-25T00:24:21;7.25;86.00
70336;SHT31;57756;47.408;18.940;2024-01-25T00:26:46;7.32;85.21
70336;SHT31;57756;47.408;18.940;2024-01-25T00:29:11;7.42;84.87
70336;SHT31;57756;47.408;18.940;2024-01-25T00:31:37;7.29;85.43
70336;SHT31;57756;47.408;18.940;2024-01-25T00:34:03;7.29;85.44
70336;SHT31;57756;47.408;18.940;2024-01-25T00:36:28;7.27;85.09
70336;SHT31;57756;47.408;18.940;2024-01-25T00:38:54;7.27;85.15
70336;SHT31;57756;47.408;18.940;2024-01-25T00:41:20;7.30;84.82
70336;SHT31;57756;47.408;18.940;2024-01-25T00:43:46;7.32;84.75
70336;SHT31;57756;47.408;18.940;2024-01-25T00:46:11;7.20;84.96
70336;SHT31;57756;47.408;18.940;2024-01-25T00:48:37;7.26;84.83
70336;SHT31;57756;47.408;18.940;2024-01-25T00:51:07;7.35;84.51
70336;SHT31;57756;47.408;18.940;2024-01-25T00:53:33;7.27;84.66
70336;SHT31;57756;47.408;18.940;2024-01-25T00:55:59;7.20;84.80
70336;SHT31;57756;47.408;18.940;2024-01-25T00:58:25;7.25;84.32
70336;SHT31;57756;47.408;18.940;2024-01-25T01:00:51;7.22;84.56
70336;SHT31;57756;47.408;18.940;2024-01-25T01:03:18;7.18;84.80
70336;SHT31;57756;47.408;18.940;2024-01-25T01:05:44;7.25;84.45
70336;SHT31;57756;47.408;18.940;2024-01-25T01:08:10;7.29;84.27
70336;SHT31;57756;47.408;18.940;2024-01-25T01:10:35;7.36;84.12
70336;SHT31;57756;47.408;18.940;2024-01-25T01:13:01;7.40;83.86
70336;SHT31;57756;47.408;18.940;2024-01-25T01:15:26;7.42;83.68
70336;SHT31;57756;47.408;18.940;2024-01-25T01:17:51;7.37;84.04
70336;SHT31;57756;47.408;18.940;2024-01-25T01:20:17;7.23;84.25
70336;SHT31;57756;47.408;18.940;2024-01-25T01:22:43;7.25;84.04
70336;SHT31;57756;47.408;18.940;2024-01-25T01:25:09;7.06;84.82
70336;SHT31;57756;47.408;18.940;2024-01-25T01:27:35;6.98;84.89
70336;SHT31;57756;47.408;18.940;2024-01-25T01:30:01;6.94;85.17
70336;SHT31;57756;47.408;18.940;2024-01-25T01:32:26;6.84;85.65
70336;SHT31;57756;47.408;18.940;2024-01-25T01:34:51;6.80;85.82
70336;SHT31;57756;47.408;18.940;2024-01-25T01:37:17;6.85;85.36
70336;SHT31;57756;47.408;18.940;2024-01-25T01:39:42;7.04;84.43
70336;SHT31;57756;47.408;18.940;2024-01-25T01:42:08;6.98;85.39
70336;SHT31;57756;47.408;18.940;2024-01-25T01:44:33;7.12;84.44
70336;SHT31;57756;47.408;18.940;2024-01-25T01:46:59;7.15;84.54
70336;SHT31;57756;47.408;18.940;2024-01-25T01:49:25;7.11;84.48
70336;SHT31;57756;47.408;18.940;2024-01-25T01:51:50;7.15;84.31
70336;SHT31;57756;47.408;18.940;2024-01-25T01:54:16;7.02;84.76
70336;SHT31;57756;47.408;18.940;2024-01-25T01:56:41;7.06;84.40
70336;SHT31;57756;47.408;18.940;2024-01-25T01:59:10;7.06;84.41
70336;SHT31;57756;47.408;18.940;2024-01-25T02:01:36;7.06;84.53
70336;SHT31;57756;47.408;18.940;2024-01-25T02:04:02;6.99;84.76
70336;SHT31;57756;47.408;18.940;2024-01-25T02:06:27;7.02;84.67
70336;SHT31;57756;47.408;18.940;2024-01-25T02:08:53;7.08;84.31
70336;SHT31;57756;47.408;18.940;2024-01-25T02:11:21;7.19;84.06
70336;SHT31;57756;47.408;18.940;2024-01-25T02:13:47;7.18;84.07
70336;SHT31;57756;47.408;18.940;2024-01-25T02:16:13;7.33;83.66
70336;SHT31;57756;47.408;18.940;2024-01-25T02:18:41;7.23;84.37
70336;SHT31;57756;47.408;18.940;2024-01-25T02:21:06;7.39;83.49
70336;SHT31;57756;47.408;18.940;2024-01-25T02:23:32;7.30;84.01
70336;SHT31;57756;47.408;18.940;2024-01-25T02:25:57;7.40;83.58
70336;SHT31;57756;47.408;18.940;2024-01-25T02:28:23;7.46;83.52
70336;SHT31;57756;47.408;18.940;2024-01-25T02:30:48;7.54;83.38
70336;SHT31;57756;47.408;18.940;2024-01-25T02:33:13;7.52;83.49
70336;SHT31;57756;47.408;18.940;2024-01-25T02:35:39;7.54;83.65
70336;SHT31;57756;47.408;18.940;2024-01-25T02:38:04;7.52;83.64
70336;SHT31;57756;47.408;18.940;2024-01-25T02:40:30;7.73;82.91
70336;SHT31;57756;47.408;18.940;2024-01-25T02:42:55;7.66;83.23
70336;SHT31;57756;47.408;18.940;2024-01-25T02:45:22;7.64;83.20
70336;SHT31;57756;47.408;18.940;2024-01-25T02:47:47;7.71;83.23
70336;SHT31;57756;47.408;18.940;2024-01-25T02:50:12;7.66;83.48
70336;SHT31;57756;47.408;18.940;2024-01-25T02:52:38;7.63;83.76
70336;SHT31;57756;47.408;18.940;2024-01-25T02:55:03;7.70;83.49
70336;SHT31;57756;47.408;18.940;2024-01-25T02:57:29;7.70;84.03
70336;SHT31;57756;47.408;18.940;2024-01-25T02:59:56;7.67;84.24
70336;SHT31;57756;47.408;18.940;2024-01-25T03:02:22;7.75;84.68
70336;SHT31;57756;47.408;18.940;2024-01-25T03:04:47;7.78;85.02
70336;SHT31;57756;47.408;18.940;2024-01-25T03:07:13;7.75;85.44
70336;SHT31;57756;47.408;18.940;2024-01-25T03:09:38;7.74;85.75
70336;SHT31;57756;47.408;18.940;2024-01-25T03:12:04;7.66;86.35
70336;SHT31;57756;47.408;18.940;2024-01-25T03:14:30;7.62;86.55
70336;SHT31;57756;47.408;18.940;2024-01-25T03:16:55;7.64;86.61
70336;SHT31;57756;47.408;18.940;2024-01-25T03:19:24;7.64;86.78
70336;SHT31;57756;47.408;18.940;2024-01-25T03:21:50;7.54;87.18
70336;SHT31;57756;47.408;18.940;2024-01-25T03:24:15;7.49;87.49
70336;SHT31;57756;47.408;18.940;2024-01-25T03:26:41;7.49;87.40
70336;SHT31;57756;47.408;18.940;2024-01-25T03:29:06;7.63;87.06
70336;SHT31;57756;47.408;18.940;2024-01-25T03:31:31;7.60;87.06
70336;SHT31;57756;47.408;18.940;2024-01-25T03:33:57;7.56;87.40
70336;SHT31;57756;47.408;18.940;2024-01-25T03:36:23;7.46;87.66
70336;SHT31;57756;47.408;18.940;2024-01-25T03:38:48;7.32;88.10
70336;SHT31;57756;47.408;18.940;2024-01-25T03:41:13;7.36;88.02
70336;SHT31;57756;47.408;18.940;2024-01-25T03:43:39;7.33;87.99
70336;SHT31;57756;47.408;18.940;2024-01-25T03:46:04;7.39;87.68
70336;SHT31;57756;47.408;18.940;2024-01-25T03:48:30;7.30;87.88
70336;SHT31;57756;47.408;18.940;2024-01-25T03:50:55;7.33;87.60
70336;SHT31;57756;47.408;18.940;2024-01-25T03:53:22;7.40;87.32
70336;SHT31;57756;47.408;18.940;2024-01-25T03:55:47;7.27;87.58
70336;SHT31;57756;47.408;18.940;2024-01-25T03:58:15;7.39;87.07
70336;SHT31;57756;47.408;18.940;2024-01-25T04:00:40;7.37;87.00
70336;SHT31;57756;47.408;18.940;2024-01-25T04:03:05;7.40;86.84
70336;SHT31;57756;47.408;18.940;2024-01-25T04:05:31;7.50;86.36
70336;SHT31;57756;47.408;18.940;2024-01-25T04:07:56;7.49;86.58
70336;SHT31;57756;47.408;18.940;2024-01-25T04:10:22;7.42;86.85
70336;SHT31;57756;47.408;18.940;2024-01-25T04:12:47;7.45;86.64
70336;SHT31;57756;47.408;18.940;2024-01-25T04:15:12;7.40;86.64
70336;SHT31;57756;47.408;18.940;2024-01-25T04:17:38;7.43;86.82
70336;SHT31;57756;47.408;18.940;2024-01-25T04:20:04;7.42;86.85
70336;SHT31;57756;47.408;18.940;2024-01-25T04:22:29;7.40;86.79
70336;SHT31;57756;47.408;18.940;2024-01-25T04:24:55;7.40;86.87
70336;SHT31;57756;47.408;18.940;2024-01-25T04:27:20;7.47;86.60
70336;SHT31;57756;47.408;18.940;2024-01-25T04:29:45;7.57;86.37
70336;SHT31;57756;47.408;18.940;2024-01-25T04:32:12;7.59;86.44
70336;SHT31;57756;47.408;18.940;2024-01-25T04:34:39;7.57;86.29
70336;SHT31;57756;47.408;18.940;2024-01-25T04:37:05;7.49;86.56
70336;SHT31;57756;47.408;18.940;2024-01-25T04:39:30;7.56;86.62
70336;SHT31;57756;47.408;18.940;2024-01-25T04:41:55;7.50;86.82
70336;SHT31;57756;47.408;18.940;2024-01-25T04:44:21;7.52;86.79
70336;SHT31;57756;47.408;18.940;2024-01-25T04:46:46;7.52;86.65
70336;SHT31;57756;47.408;18.940;2024-01-25T04:49:12;7.54;86.48
70336;SHT31;57756;47.408;18.940;2024-01-25T04:51:37;7.57;86.42
70336;SHT31;57756;47.408;18.940;2024-01-25T04:54:02;7.64;86.19
70336;SHT31;57756;47.408;18.940;2024-01-25T04:56:28;7.50;86.44
70336;SHT31;57756;47.408;18.940;2024-01-25T04:58:53;7.49;86.43
70336;SHT31;57756;47.408;18.940;2024-01-25T05:01:19;7.54;86.49
70336;SHT31;57756;47.408;18.940;2024-01-25T05:03:44;7.46;86.88
70336;SHT31;57756;47.408;18.940;2024-01-25T05:06:10;7.45;86.76
70336;SHT31;57756;47.408;18.940;2024-01-25T05:08:35;7.56;86.32
70336;SHT31;57756;47.408;18.940;2024-01-25T05:11:01;7.52;86.23
70336;SHT31;57756;47.408;18.940;2024-01-25T05:13:26;7.47;86.40
70336;SHT31;57756;47.408;18.940;2024-01-25T05:15:52;7.40;87.02
70336;SHT31;57756;47.408;18.940;2024-01-25T05:18:17;7.45;86.59
70336;SHT31;57756;47.408;18.940;2024-01-25T05:20:42;7.42;86.72
70336;SHT31;57756;47.408;18.940;2024-01-25T05:23:08;7.39;87.01
70336;SHT31;57756;47.408;18.940;2024-01-25T05:25:33;7.23;87.40
70336;SHT31;57756;47.408;18.940;2024-01-25T05:27:59;7.27;86.86
70336;SHT31;57756;47.408;18.940;2024-01-25T05:30:25;7.32;86.87
70336;SHT31;57756;47.408;18.940;2024-01-25T05:32:51;7.35;87.18
70336;SHT31;57756;47.408;18.940;2024-01-25T05:35:18;7.35;87.16
70336;SHT31;57756;47.408;18.940;2024-01-25T05:37:44;7.37;86.95
70336;SHT31;57756;47.408;18.940;2024-01-25T05:40:15;7.37;87.07
70336;SHT31;57756;47.408;18.940;2024-01-25T05:42:41;7.29;87.14
70336;SHT31;57756;47.408;18.940;2024-01-25T05:45:07;7.27;87.70
70336;SHT31;57756;47.408;18.940;2024-01-25T05:47:34;7.32;87.41
70336;SHT31;57756;47.408;18.940;2024-01-25T05:49:59;7.26;87.56
70336;SHT31;57756;47.408;18.940;2024-01-25T05:52:25;7.18;88.04
70336;SHT31;57756;47.408;18.940;2024-01-25T05:54:50;7.15;88.11
70336;SHT31;57756;47.408;18.940;2024-01-25T05:57:16;7.09;88.37
70336;SHT31;57756;47.408;18.940;2024-01-25T05:59:42;7.04;88.54
70336;SHT31;57756;47.408;18.940;2024-01-25T06:02:08;6.97;88.60
70336;SHT31;57756;47.408;18.940;2024-01-25T06:04:34;6.99;88.71
70336;SHT31;57756;47.408;18.940;2024-01-25T06:06:59;7.09;88.32
70336;SHT31;57756;47.408;18.940;2024-01-25T06:09:25;7.14;88.28
70336;SHT31;57756;47.408;18.940;2024-01-25T06:11:50;7.14;88.19
70336;SHT31;57756;47.408;18.940;2024-01-25T06:14:16;7.15;88.12
70336;SHT31;57756;47.408;18.940;2024-01-25T06:16:42;7.18;87.77
70336;SHT31;57756;47.408;18.940;2024-01-25T06:19:08;7.22;87.77
70336;SHT31;57756;47.408;18.940;2024-01-25T06:21:33;7.16;87.63
70336;SHT31;57756;47.408;18.940;2024-01-25T06:24:03;7.18;87.51
70336;SHT31;57756;47.408;18.940;2024-01-25T06:26:29;7.33;86.86
70336;SHT31;57756;47.408;18.940;2024-01-25T06:28:54;7.33;86.75
70336;SHT31;57756;47.408;18.940;2024-01-25T06:31:19;7.29;87.08
70336;SHT31;57756;47.408;18.940;2024-01-25T06:33:45;7.43;86.22
70336;SHT31;57756;47.408;18.940;2024-01-25T06:36:12;7.42;86.07
70336;SHT31;57756;47.408;18.940;2024-01-25T06:38:40;7.57;85.34
70336;SHT31;57756;47.408;18.940;2024-01-25T06:41:05;7.62;85.38
70336;SHT31;57756;47.408;18.940;2024-01-25T06:43:31;7.74;84.79
70336;SHT31;57756;47.408;18.940;2024-01-25T06:45:56;7.70;85.05
70336;SHT31;57756;47.408;18.940;2024-01-25T06:48:21;7.75;84.96
70336;SHT31;57756;47.408;18.940;2024-01-25T06:50:47;7.83;84.66
70336;SHT31;57756;47.408;18.940;2024-01-25T06:53:12;7.80;84.55
70336;SHT31;57756;47.408;18.940;2024-01-25T06:55:38;7.87;84.27
70336;SHT31;57756;47.408;18.940;2024-01-25T06:58:03;8.02;83.52
70336;SHT31;57756;47.408;18.940;2024-01-25T07:00:29;8.01;83.37
70336;SHT31;57756;47.408;18.940;2024-01-25T07:02:54;7.92;83.70
70336;SHT31;57756;47.408;18.940;2024-01-25T07:05:19;7.94;83.45
70336;SHT31;57756;47.408;18.940;2024-01-25T07:07:45;7.91;83.77
70336;SHT31;57756;47.408;18.940;2024-01-25T07:10:10;7.92;83.69
70336;SHT31;57756;47.408;18.940;2024-01-25T07:12:36;7.87;83.61
70336;SHT31;57756;47.408;18.940;2024-01-25T07:15:01;7.88;83.61
70336;SHT31;57756;47.408;18.940;2024-01-25T07:17:27;7.97;83.46
70336;SHT31;57756;47.408;18.940;2024-01-25T07:19:53;8.06;83.12
70336;SHT31;57756;47.408;18.940;2024-01-25T07:22:18;8.08;83.27
70336;SHT31;57756;47.408;18.940;2024-01-25T07:24:44;8.21;82.85
70336;SHT31;57756;47.408;18.940;2024-01-25T07:27:10;8.39;82.00
70336;SHT31;57756;47.408;18.940;2024-01-25T07:29:36;8.46;81.83
70336;SHT31;57756;47.408;18.940;2024-01-25T07:32:02;8.54;81.63
70336;SHT31;57756;47.408;18.940;2024-01-25T07:34:28;8.67;81.35
70336;SHT31;57756;47.408;18.940;2024-01-25T07:36:53;8.73;81.01
70336;SHT31;57756;47.408;18.940;2024-01-25T07:39:19;8.81;81.02
70336;SHT31;57756;47.408;18.940;2024-01-25T07:41:44;8.84;80.81
70336;SHT31;57756;47.408;18.940;2024-01-25T07:44:10;8.92;80.66
70336;SHT31;57756;47.408;18.940;2024-01-25T07:46:35;9.01;79.79
70336;SHT31;57756;47.408;18.940;2024-01-25T07:49:00;9.08;80.04
70336;SHT31;57756;47.408;18.940;2024-01-25T07:51:26;9.19;79.67
70336;SHT31;57756;47.408;18.940;2024-01-25T07:53:54;9.28;78.59
70336;SHT31;57756;47.408;18.940;2024-01-25T07:56:19;9.36;78.74
70336;SHT31;57756;47.408;18.940;2024-01-25T07:58:47;9.45;78.85
70336;SHT31;57756;47.408;18.940;2024-01-25T08:01:19;9.55;77.92
70336;SHT31;57756;47.408;18.940;2024-01-25T08:03:45;9.63;77.76
70336;SHT31;57756;47.408;18.940;2024-01-25T08:06:10;9.80;77.68
70336;SHT31;57756;47.408;18.940;2024-01-25T08:08:36;9.80;77.25
70336;SHT31;57756;47.408;18.940;2024-01-25T08:11:02;10.00;76.62
70336;SHT31;57756;47.408;18.940;2024-01-25T08:13:30;10.08;76.14
70336;SHT31;57756;47.408;18.940;2024-01-25T08:15:56;10.15;76.23
70336;SHT31;57756;47.408;18.940;2024-01-25T08:18:22;10.25;76.17
70336;SHT31;57756;47.408;18.940;2024-01-25T08:20:48;10.30;76.00
70336;SHT31;57756;47.408;18.940;2024-01-25T08:23:14;10.37;76.63
70336;SHT31;57756;47.408;18.940;2024-01-25T08:25:40;10.41;76.31
70336;SHT31;57756;47.408;18.940;2024-01-25T08:28:06;10.44;76.31
70336;SHT31;57756;47.408;18.940;2024-01-25T08:30:31;10.68;76.29
70336;SHT31;57756;47.408;18.940;2024-01-25T08:32:56;10.75;76.03
70336;SHT31;57756;47.408;18.940;2024-01-25T08:35:22;10.90;75.72
70336;SHT31;57756;47.408;18.940;2024-01-25T08:37:48;10.86;75.35
70336;SHT31;57756;47.408;18.940;2024-01-25T08:40:14;11.04;75.64
70336;SHT31;57756;47.408;18.940;2024-01-25T08:42:39;11.08;75.11
70336;SHT31;57756;47.408;18.940;2024-01-25T08:45:05;11.10;75.34
70336;SHT31;57756;47.408;18.940;2024-01-25T08:47:34;11.38;74.80
70336;SHT31;57756;47.408;18.940;2024-01-25T08:50:00;11.54;74.37
70336;SHT31;57756;47.408;18.940;2024-01-25T08:52:26;11.38;73.53
70336;SHT31;57756;47.408;18.940;2024-01-25T08:54:52;11.39;73.62
70336;SHT31;57756;47.408;18.940;2024-01-25T08:57:19;11.52;73.57
70336;SHT31;57756;47.408;18.940;2024-01-25T08:59:45;11.69;73.38
70336;SHT31;57756;47.408;18.940;2024-01-25T09:02:11;11.79;72.57
70336;SHT31;57756;47.408;18.940;2024-01-25T09:04:36;11.75;72.76
70336;SHT31;57756;47.408;18.940;2024-01-25T09:07:02;11.87;72.54
70336;SHT31;57756;47.408;18.940;2024-01-25T09:09:28;11.82;72.58
70336;SHT31;57756;47.408;18.940;2024-01-25T09:11:53;11.99;72.26
70336;SHT31;57756;47.408;18.940;2024-01-25T09:14:19;12.07;71.99
70336;SHT31;57756;47.408;18.940;2024-01-25T09:16:45;11.94;72.30
70336;SHT31;57756;47.408;18.940;2024-01-25T09:19:10;12.02;72.93
70336;SHT31;57756;47.408;18.940;2024-01-25T09:21:38;12.14;72.70
70336;SHT31;57756;47.408;18.940;2024-01-25T09:24:06;12.26;72.00
70336;SHT31;57756;47.408;18.940;2024-01-25T09:26:33;12.14;71.58
70336;SHT31;57756;47.408;18.940;2024-01-25T09:28:58;12.17;71.47
70336;SHT31;57756;47.408;18.940;2024-01-25T09:31:24;12.24;71.70
70336;SHT31;57756;47.408;18.940;2024-01-25T09:33:49;12.38;71.71
70336;SHT31;57756;47.408;18.940;2024-01-25T09:36:16;12.36;71.03
70336;SHT31;57756;47.408;18.940;2024-01-25T09:38:42;12.54;70.88
70336;SHT31;57756;47.408;18.940;2024-01-25T09:41:08;12.72;70.62
70336;SHT31;57756;47.408;18.940;2024-01-25T09:43:33;12.78;69.84
70336;SHT31;57756;47.408;18.940;2024-01-25T09:45:59;12.67;69.06
70336;SHT31;57756;47.408;18.940;2024-01-25T09:48:25;12.58;68.60
70336;SHT31;57756;47.408;18.940;2024-01-25T09:50:54;12.64;69.18
70336;SHT31;57756;47.408;18.940;2024-01-25T09:53:23;12.78;68.60
70336;SHT31;57756;47.408;18.940;2024-01-25T09:56:07;12.88;68.19
70336;SHT31;57756;47.408;18.940;2024-01-25T09:58:41;13.00;68.07
70336;SHT31;57756;47.408;18.940;2024-01-25T10:01:12;13.09;68.17
70336;SHT31;57756;47.408;18.940;2024-01-25T10:03:39;13.12;67.84
70336;SHT31;57756;47.408;18.940;2024-01-25T10:06:07;12.95;67.65
70336;SHT31;57756;47.408;18.940;2024-01-25T10:08:33;12.99;67.65
70336;SHT31;57756;47.408;18.940;2024-01-25T10:10:59;12.64;68.83
70336;SHT31;57756;47.408;18.940;2024-01-25T10:13:26;12.95;68.58
70336;SHT31;57756;47.408;18.940;2024-01-25T10:15:52;13.19;67.84
70336;SHT31;57756;47.408;18.940;2024-01-25T10:18:17;13.61;68.73
70336;SHT31;57756;47.408;18.940;2024-01-25T10:20:43;13.42;67.61
70336;SHT31;57756;47.408;18.940;2024-01-25T10:23:08;13.02;68.49
70336;SHT31;57756;47.408;18.940;2024-01-25T10:25:38;12.93;67.38
70336;SHT31;57756;47.408;18.940;2024-01-25T10:28:07;12.74;66.66
70336;SHT31;57756;47.408;18.940;2024-01-25T10:30:34;13.03;67.20
70336;SHT31;57756;47.408;18.940;2024-01-25T10:33:00;12.96;66.83
70336;SHT31;57756;47.408;18.940;2024-01-25T10:35:26;12.86;67.66
70336;SHT31;57756;47.408;18.940;2024-01-25T10:37:53;13.10;67.46
70336;SHT31;57756;47.408;18.940;2024-01-25T10:40:19;13.32;67.13
70336;SHT31;57756;47.408;18.940;2024-01-25T10:42:45;13.19;67.76
70336;SHT31;57756;47.408;18.940;2024-01-25T10:45:10;12.86;66.82
70336;SHT31;57756;47.408;18.940;2024-01-25T10:47:36;12.41;68.72
70336;SHT31;57756;47.408;18.940;2024-01-25T10:50:03;12.36;68.14
70336;SHT31;57756;47.408;18.940;2024-01-25T10:52:30;12.24;67.58
70336;SHT31;57756;47.408;18.940;2024-01-25T10:54:57;12.37;68.17
70336;SHT31;57756;47.408;18.940;2024-01-25T10:57:23;12.37;67.44
70336;SHT31;57756;47.408;18.940;2024-01-25T10:59:49;12.47;67.45
70336;SHT31;57756;47.408;18.940;2024-01-25T11:02:18;12.97;67.32
70336;SHT31;57756;47.408;18.940;2024-01-25T11:04:53;12.54;67.64
70336;SHT31;57756;47.408;18.940;2024-01-25T11:07:20;12.61;67.60
70336;SHT31;57756;47.408;18.940;2024-01-25T11:09:46;12.40;67.93
70336;SHT31;57756;47.408;18.940;2024-01-25T11:12:17;12.10;67.51
70336;SHT31;57756;47.408;18.940;2024-01-25T11:14:43;12.06;68.62
70336;SHT31;57756;47.408;18.940;2024-01-25T11:17:35;11.86;67.96
70336;SHT31;57756;47.408;18.940;2024-01-25T11:20:02;11.73;69.14
70336;SHT31;57756;47.408;18.940;2024-01-25T11:22:35;11.86;69.11
70336;SHT31;57756;47.408;18.940;2024-01-25T11:25:13;11.66;68.51
70336;SHT31;57756;47.408;18.940;2024-01-25T11:27:43;11.59;69.81
70336;SHT31;57756;47.408;18.940;2024-01-25T11:30:09;11.42;69.28
70336;SHT31;57756;47.408;18.940;2024-01-25T11:32:35;11.45;69.67
70336;SHT31;57756;47.408;18.940;2024-01-25T11:35:00;11.57;70.32
70336;SHT31;57756;47.408;18.940;2024-01-25T11:37:26;11.44;69.55
70336;SHT31;57756;47.408;18.940;2024-01-25T11:39:51;11.35;70.77
70336;SHT31;57756;47.408;18.940;2024-01-25T11:42:18;11.00;71.17
70336;SHT31;57756;47.408;18.940;2024-01-25T11:44:43;10.77;71.02
70336;SHT31;57756;47.408;18.940;2024-01-25T11:47:09;10.68;71.53
70336;SHT31;57756;47.408;18.940;2024-01-25T11:49:34;10.52;71.52
70336;SHT31;57756;47.408;18.940;2024-01-25T11:52:00;10.35;71.86
70336;SHT31;57756;47.408;18.940;2024-01-25T11:54:27;10.27;72.88
70336;SHT31;57756;47.408;18.940;2024-01-25T11:56:53;10.21;72.67
70336;SHT31;57756;47.408;18.940;2024-01-25T11:59:19;10.24;72.02
70336;SHT31;57756;47.408;18.940;2024-01-25T12:01:44;10.22;72.04
70336;SHT31;57756;47.408;18.940;2024-01-25T12:04:10;10.22;71.40
70336;SHT31;57756;47.408;18.940;2024-01-25T12:06:35;10.21;71.36
70336;SHT31;57756;47.408;18.940;2024-01-25T12:09:10;10.32;71.27
70336;SHT31;57756;47.408;18.940;2024-01-25T12:11:36;10.28;71.13
70336;SHT31;57756;47.408;18.940;2024-01-25T12:14:02;10.31;70.52
70336;SHT31;57756;47.408;18.940;2024-01-25T12:16:27;10.22;70.77
70336;SHT31;57756;47.408;18.940;2024-01-25T12:18:53;10.27;70.37
70336;SHT31;57756;47.408;18.940;2024-01-25T12:21:19;10.14;70.70
70336;SHT31;57756;47.408;18.940;2024-01-25T12:23:44;10.18;71.31
70336;SHT31;57756;47.408;18.940;2024-01-25T12:26:10;10.08;70.62
70336;SHT31;57756;47.408;18.940;2024-01-25T12:28:37;10.15;70.87
70336;SHT31;57756;47.408;18.940;2024-01-25T12:31:04;10.14;69.94
70336;SHT31;57756;47.408;18.940;2024-01-25T12:33:29;10.08;70.20
70336;SHT31;57756;47.408;18.940;2024-01-25T12:35:55;10.14;70.37
70336;SHT31;57756;47.408;18.940;2024-01-25T12:38:21;10.17;70.15
70336;SHT31;57756;47.408;18.940;2024-01-25T12:40:48;10.14;69.94
70336;SHT31;57756;47.408;18.940;2024-01-25T12:43:15;10.11;70.06
70336;SHT31;57756;47.408;18.940;2024-01-25T12:45:40;10.04;70.10
70336;SHT31;57756;47.408;18.940;2024-01-25T12:48:06;10.03;70.43
70336;SHT31;57756;47.408;18.940;2024-01-25T12:50:34;9.97;70.21
70336;SHT31;57756;47.408;18.940;2024-01-25T12:53:01;9.94;70.77
70336;SHT31;57756;47.408;18.940;2024-01-25T12:55:28;9.94;70.61
70336;SHT31;57756;47.408;18.940;2024-01-25T12:57:54;9.94;70.73
70336;SHT31;57756;47.408;18.940;2024-01-25T13:00:19;9.98;70.77
70336;SHT31;57756;47.408;18.940;2024-01-25T13:02:44;9.87;70.62
70336;SHT31;57756;47.408;18.940;2024-01-25T13:05:10;9.86;70.70
70336;SHT31;57756;47.408;18.940;2024-01-25T13:07:35;9.86;71.10
70336;SHT31;57756;47.408;18.940;2024-01-25T13:10:01;9.79;71.62
70336;SHT31;57756;47.408;18.940;2024-01-25T13:12:26;9.79;71.61
70336;SHT31;57756;47.408;18.940;2024-01-25T13:14:51;9.76;71.78
70336;SHT31;57756;47.408;18.940;2024-01-25T13:17:17;9.73;72.32
70336;SHT31;57756;47.408;18.940;2024-01-25T13:19:42;9.73;71.78
70336;SHT31;57756;47.408;18.940;2024-01-25T13:22:08;9.69;71.61
70336;SHT31;57756;47.408;18.940;2024-01-25T13:24:33;9.72;71.44
70336;SHT31;57756;47.408;18.940;2024-01-25T13:26:58;9.63;71.57
70336;SHT31;57756;47.408;18.940;2024-01-25T13:29:24;9.66;71.94
70336;SHT31;57756;47.408;18.940;2024-01-25T13:31:49;9.62;71.84
70336;SHT31;57756;47.408;18.940;2024-01-25T13:34:15;9.57;71.99
70336;SHT31;57756;47.408;18.940;2024-01-25T13:36:40;9.52;71.92
70336;SHT31;57756;47.408;18.940;2024-01-25T13:39:06;9.49;71.86
70336;SHT31;57756;47.408;18.940;2024-01-25T13:41:31;9.43;72.55
70336;SHT31;57756;47.408;18.940;2024-01-25T13:43:57;9.42;72.27
70336;SHT31;57756;47.408;18.940;2024-01-25T13:46:22;9.42;72.78
70336;SHT31;57756;47.408;18.940;2024-01-25T13:48:47;9.43;72.22
70336;SHT31;57756;47.408;18.940;2024-01-25T13:51:13;9.39;72.56
70336;SHT31;57756;47.408;18.940;2024-01-25T13:53:39;9.32;72.57
70336;SHT31;57756;47.408;18.940;2024-01-25T13:56:05;9.32;72.44
70336;SHT31;57756;47.408;18.940;2024-01-25T13:58:30;9.25;73.00
70336;SHT31;57756;47.408;18.940;2024-01-25T14:00:56;9.21;73.15
70336;SHT31;57756;47.408;18.940;2024-01-25T14:03:21;9.21;72.60
70336;SHT31;57756;47.408;18.940;2024-01-25T14:05:46;9.21;72.73
70336;SHT31;57756;47.408;18.940;2024-01-25T14:08:12;9.17;73.23
70336;SHT31;57756;47.408;18.940;2024-01-25T14:10:37;9.11;73.15
70336;SHT31;57756;47.408;18.940;2024-01-25T14:13:03;9.14;72.86
70336;SHT31;57756;47.408;18.940;2024-01-25T14:15:28;9.08;73.39
70336;SHT31;57756;47.408;18.940;2024-01-25T14:17:54;9.10;72.85
70336;SHT31;57756;47.408;18.940;2024-01-25T14:20:19;9.03;73.55
70336;SHT31;57756;47.408;18.940;2024-01-25T14:22:45;8.96;73.59
70336;SHT31;57756;47.408;18.940;2024-01-25T14:25:10;8.98;73.50
70336;SHT31;57756;47.408;18.940;2024-01-25T14:27:37;8.94;73.58
70336;SHT31;57756;47.408;18.940;2024-01-25T14:30:02;8.90;73.45
70336;SHT31;57756;47.408;18.940;2024-01-25T14:32:29;8.90;73.27
70336;SHT31;57756;47.408;18.940;2024-01-25T14:34:55;8.91;73.17
70336;SHT31;57756;47.408;18.940;2024-01-25T14:37:21;8.84;73.87
70336;SHT31;57756;47.408;18.940;2024-01-25T14:39:46;8.80;73.68
70336;SHT31;57756;47.408;18.940;2024-01-25T14:42:12;8.76;73.33
70336;SHT31;57756;47.408;18.940;2024-01-25T14:44:38;8.74;73.69
70336;SHT31;57756;47.408;18.940;2024-01-25T14:47:04;8.76;73.34
70336;SHT31;57756;47.408;18.940;2024-01-25T14:49:29;8.71;73.44
70336;SHT31;57756;47.408;18.940;2024-01-25T14:51:55;8.67;73.78
70336;SHT31;57756;47.408;18.940;2024-01-25T14:54:20;8.70;73.28
70336;SHT31;57756;47.408;18.940;2024-01-25T14:56:45;8.64;73.46
70336;SHT31;57756;47.408;18.940;2024-01-25T14:59:15;8.59;74.01
70336;SHT31;57756;47.408;18.940;2024-01-25T15:01:41;8.53;73.81
70336;SHT31;57756;47.408;18.940;2024-01-25T15:04:06;8.54;73.66
70336;SHT31;57756;47.408;18.940;2024-01-25T15:06:32;8.48;74.52
70336;SHT31;57756;47.408;18.940;2024-01-25T15:08:57;8.46;74.11
70336;SHT31;57756;47.408;18.940;2024-01-25T15:11:22;8.42;74.04
70336;SHT31;57756;47.408;18.940;2024-01-25T15:13:48;8.42;74.06
70336;SHT31;57756;47.408;18.940;2024-01-25T15:16:14;8.32;74.40
70336;SHT31;57756;47.408;18.940;2024-01-25T15:18:39;8.31;74.81